Decoded Metar for KBDR (STRATFORD in CT, USA) (IATA:BDR) | Meteo·Mobile Aviation Weather
aviador You're here:

KBDR Decoded Metar

STRATFORD in CT, USA
Report Time2019-02-18 10:30:00
UTC Time2019-02-18 10:36:32
Flight Rules lifr LIFR
Wind090° at 12 kt
W.Decomp.*RWY 11: 11.9 kt HW 1.5 kt LCW
RWY 06: 8.8 kt HW 8.2 kt RCW
W.Rank090° ranks 25
Current wind is above 090° avg. (8.5)
Visibility8047 m
Phenomena:Light Freezing Rain
Mist
Clouds:Overcast 004 Hf
Expected CloudBase > 400 ft AGL from Temp-Dew spread
Ceiling400 ft
Temp01°C (ISA -14)
Dew Point00°C (93% RH)
AAT-5.3°C
QNH1010 hPa
Density Alt-1,493 ft
Elevation23 ft
Report Wrong Elevation
Raw Report
KBDR 181030Z AUTO 09012KT 5SM -FZRA BR OVC004 01/00 A2982=

Extra information for KBDR:More info

Metar Taf Metar & Taf Last 4 Metars F.Rules Stats Wind Profile Meteogram Temp Stats Airport Information Weather charts Add Link Nearby VenuesMetar ALERT Operation Metar Decoded Social comments

AIRNAV info for KBDR